createdAt,value
2018-12-16T00:03:24.240Z,71.57
2018-12-16T00:08:31.150Z,73.53
2018-12-16T00:13:36.298Z,71.03
2018-12-16T00:18:40.668Z,75.27
2018-12-16T00:23:45.117Z,74.70
2018-12-16T00:28:50.920Z,73.50
2018-12-16T00:33:55.123Z,78.43
2018-12-16T00:39:03.922Z,78.63
2018-12-16T00:44:11.200Z,65.43
2018-12-16T00:54:40.620Z,73.10
2018-12-16T00:59:46.706Z,73.57
2018-12-16T01:04:54.136Z,70.57
2018-12-16T01:10:01.135Z,70.17
2018-12-16T01:15:14.356Z,71.37
2018-12-16T01:20:21.972Z,71.57
2018-12-16T01:25:28.801Z,72.67
2018-12-16T01:30:34.242Z,74.27
2018-12-16T01:35:38.394Z,72.23
2018-12-16T01:40:45.829Z,71.00
2018-12-16T01:45:52.640Z,83.87
2018-12-16T01:50:57.141Z,71.27
2018-12-16T01:56:01.584Z,83.37
2018-12-16T02:01:06.018Z,82.23
2018-12-16T02:06:10.330Z,76.03
2018-12-16T02:11:14.677Z,77.43
2018-12-16T02:16:21.014Z,75.40
2018-12-16T02:21:25.378Z,75.00
2018-12-16T02:26:30.203Z,71.93
2018-12-16T02:31:34.671Z,71.43
2018-12-16T02:36:40.057Z,70.80
2018-12-16T02:41:44.461Z,81.00
2018-12-16T02:46:48.960Z,71.37
2018-12-16T02:51:53.409Z,75.60
2018-12-16T02:56:58.517Z,74.43
2018-12-16T03:02:02.907Z,64.57
2018-12-16T03:07:09.473Z,68.47
2018-12-16T03:12:14.810Z,72.80
2018-12-16T03:17:20.346Z,75.57
2018-12-16T03:22:24.870Z,69.70
2018-12-16T03:27:29.146Z,70.67
2018-12-16T03:32:33.676Z,75.00
2018-12-16T03:37:38.191Z,70.33
2018-12-16T03:42:42.616Z,72.07
2018-12-16T03:47:47.025Z,76.43
2018-12-16T03:52:53.416Z,77.60
2018-12-16T03:57:58.893Z,72.00
2018-12-16T04:03:04.255Z,72.43
2018-12-16T04:08:08.487Z,73.53
2018-12-16T04:13:12.593Z,73.13
2018-12-16T04:18:17.983Z,71.90
2018-12-16T04:23:27.479Z,68.97
2018-12-16T04:28:28.514Z,65.80
2018-12-16T04:33:32.908Z,67.93
2018-12-16T04:38:37.239Z,73.00
2018-12-16T04:43:41.368Z,72.67
2018-12-16T04:48:45.664Z,64.23
2018-12-16T04:53:49.796Z,68.27
2018-12-16T04:58:53.936Z,67.77
2018-12-16T05:03:58.087Z,69.43
2018-12-16T05:09:02.177Z,66.10
2018-12-16T05:14:08.434Z,64.73
2018-12-16T05:19:15.419Z,65.60
2018-12-16T05:24:19.586Z,63.07
2018-12-16T05:29:24.224Z,70.00
2018-12-16T05:34:28.465Z,62.07
2018-12-16T05:39:32.678Z,69.43
2018-12-16T05:44:36.879Z,66.37
2018-12-16T05:49:41.029Z,64.93
2018-12-16T05:54:45.604Z,68.43
2018-12-16T05:59:49.829Z,62.23
2018-12-16T06:04:55.141Z,61.57
2018-12-16T06:09:59.425Z,63.93
2018-12-16T06:15:04.171Z,62.13
2018-12-16T06:20:17.785Z,60.33
2018-12-16T06:25:22.057Z,62.60
2018-12-16T06:30:28.737Z,65.77
2018-12-16T06:35:34.273Z,62.70
2018-12-16T06:40:40.271Z,58.20
2018-12-16T06:45:45.080Z,60.50
2018-12-16T06:50:49.594Z,53.00
2018-12-16T06:55:54.085Z,53.57
2018-12-16T07:00:58.914Z,60.53
2018-12-16T07:06:03.307Z,57.23
2018-12-16T07:11:08.653Z,51.73
2018-12-16T07:16:13.023Z,55.13
2018-12-16T07:21:18.438Z,55.57
2018-12-16T07:26:23.042Z,54.80
2018-12-16T07:31:27.724Z,55.57
2018-12-16T07:36:32.388Z,57.77
2018-12-16T07:41:37.171Z,55.60
2018-12-16T07:46:41.524Z,55.90
2018-12-16T07:51:45.989Z,55.00
2018-12-16T07:56:50.510Z,54.67
2018-12-16T08:01:55.705Z,59.13
2018-12-16T08:07:00.424Z,53.33
2018-12-16T08:12:05.051Z,53.33
2018-12-16T08:17:10.506Z,52.70
2018-12-16T08:22:15.906Z,56.67
2018-12-16T08:27:20.224Z,50.40
2018-12-16T08:32:24.839Z,49.20
2018-12-16T08:37:29.104Z,52.93
2018-12-16T08:42:33.475Z,53.07
2018-12-16T08:47:38.133Z,51.37
2018-12-16T08:52:42.302Z,49.87
2018-12-16T08:57:46.651Z,51.37
2018-12-16T09:02:51.358Z,53.40
2018-12-16T09:07:55.788Z,51.27
2018-12-16T09:13:00.619Z,52.47
2018-12-16T09:18:05.184Z,54.20
2018-12-16T09:23:09.507Z,46.60
2018-12-16T09:28:13.962Z,50.37
2018-12-16T09:33:18.485Z,52.50
2018-12-16T09:38:23.069Z,51.03
2018-12-16T09:43:27.336Z,46.97
2018-12-16T09:48:31.786Z,49.80
2018-12-16T09:53:37.165Z,48.53
2018-12-16T09:58:41.407Z,48.23
2018-12-16T10:03:45.821Z,48.87
2018-12-16T10:08:50.214Z,44.30
2018-12-16T10:13:54.555Z,39.50
2018-12-16T10:18:58.974Z,44.10
2018-12-16T10:24:03.385Z,46.47
2018-12-16T10:29:08.127Z,43.20
2018-12-16T10:34:12.394Z,44.30
2018-12-16T10:39:21.909Z,48.40
2018-12-16T10:44:26.602Z,45.57
2018-12-16T10:49:31.029Z,42.80
2018-12-16T10:54:36.213Z,43.67
2018-12-16T10:59:42.893Z,43.73
2018-12-16T11:04:47.533Z,43.27
2018-12-16T11:15:12.497Z,42.57
2018-12-16T11:20:22.392Z,43.43
2018-12-16T11:25:27.804Z,42.07
2018-12-16T11:30:32.202Z,46.93
2018-12-16T11:35:37.077Z,49.50
2018-12-16T11:40:42.106Z,47.70
2018-12-16T11:45:46.537Z,47.73
2018-12-16T11:50:51.657Z,46.87
2018-12-16T11:55:56.123Z,45.77
2018-12-16T12:01:00.981Z,48.47
2018-12-16T12:06:08.114Z,41.30
2018-12-16T12:11:12.507Z,42.37
2018-12-16T12:16:16.919Z,49.03
2018-12-16T12:21:21.451Z,44.33
2018-12-16T12:26:28.940Z,43.97
2018-12-16T12:31:33.424Z,40.93
2018-12-16T12:36:38.117Z,42.60
2018-12-16T12:41:42.646Z,36.93
2018-12-16T12:46:47.284Z,41.27
2018-12-16T12:51:52.918Z,41.00
2018-12-16T12:56:58.474Z,41.73
2018-12-16T13:02:03.649Z,37.67
2018-12-16T13:07:08.302Z,44.50
2018-12-16T13:12:13.150Z,44.40
2018-12-16T13:17:17.481Z,46.13
2018-12-16T13:22:21.724Z,43.90
2018-12-16T13:27:26.027Z,45.17
2018-12-16T13:32:30.468Z,47.90
2018-12-16T13:37:34.816Z,50.50
2018-12-16T13:42:40.052Z,50.30
2018-12-16T13:47:45.126Z,52.53
2018-12-16T13:52:49.790Z,47.77
2018-12-16T13:57:58.319Z,47.30
2018-12-16T14:03:02.630Z,49.47
2018-12-16T14:08:15.888Z,47.10
2018-12-16T14:13:20.300Z,49.33
2018-12-16T14:18:24.594Z,42.27
2018-12-16T14:23:30.583Z,42.67
2018-12-16T14:28:35.140Z,43.70
2018-12-16T14:33:39.384Z,45.67
2018-12-16T14:38:43.968Z,45.90
2018-12-16T14:43:48.174Z,45.37
2018-12-16T14:48:52.348Z,51.47
2018-12-16T14:53:56.593Z,49.93
2018-12-16T14:59:00.820Z,47.90
2018-12-16T15:04:05.127Z,48.27
2018-12-16T15:09:18.995Z,48.80
2018-12-16T15:14:23.289Z,49.87
2018-12-16T15:19:27.511Z,49.10
2018-12-16T15:24:31.644Z,51.80
2018-12-16T15:29:44.539Z,51.40
2018-12-16T15:34:48.858Z,52.27
2018-12-16T15:39:52.976Z,52.70
2018-12-16T15:44:57.561Z,54.37
2018-12-16T15:50:02.719Z,51.13
2018-12-16T15:55:09.845Z,54.87
2018-12-16T16:00:16.353Z,45.37
2018-12-16T16:05:20.627Z,47.60
2018-12-16T16:10:25.101Z,48.87
2018-12-16T16:15:29.427Z,47.37
2018-12-16T16:20:33.714Z,50.67
2018-12-16T16:25:38.184Z,49.33
2018-12-16T16:30:42.419Z,51.43
2018-12-16T16:35:46.769Z,47.83
2018-12-16T16:40:51.881Z,50.03
2018-12-16T16:45:56.191Z,50.83
2018-12-16T16:51:00.409Z,55.47
2018-12-16T16:56:04.909Z,57.00
2018-12-16T17:01:09.238Z,50.93
2018-12-16T17:06:14.535Z,51.03
2018-12-16T17:11:19.604Z,52.77
2018-12-16T17:16:24.308Z,53.73
2018-12-16T17:21:29.583Z,53.83
2018-12-16T17:26:34.344Z,50.17
2018-12-16T17:31:39.338Z,51.53
2018-12-16T17:36:43.763Z,54.20
2018-12-16T17:41:48.045Z,52.83
2018-12-16T17:46:52.577Z,52.90
2018-12-16T17:51:57.320Z,58.47
2018-12-16T17:57:01.779Z,58.80
2018-12-16T18:02:07.102Z,56.27
2018-12-16T18:07:12.664Z,60.57
2018-12-16T18:12:16.938Z,55.13
2018-12-16T18:17:21.445Z,59.10
2018-12-16T18:22:25.817Z,57.73
2018-12-16T18:27:30.558Z,57.23
2018-12-16T18:32:35.357Z,58.20
2018-12-16T18:37:39.958Z,60.67
2018-12-16T18:42:49.703Z,56.73
2018-12-16T18:47:54.122Z,59.80
2018-12-16T18:52:58.639Z,63.33
2018-12-16T18:58:03.453Z,59.17
2018-12-16T19:03:11.384Z,57.33
2018-12-16T19:08:16.983Z,57.53
2018-12-16T19:13:22.188Z,56.00
2018-12-16T19:18:27.779Z,51.33
2018-12-16T19:23:32.234Z,54.13
2018-12-16T19:28:37.031Z,51.67
2018-12-16T19:33:41.527Z,53.47
2018-12-16T19:38:45.649Z,50.90
2018-12-16T19:43:49.881Z,51.27
2018-12-16T19:48:54.276Z,51.50
2018-12-16T19:53:58.737Z,50.30
2018-12-16T19:59:04.792Z,50.40
2018-12-16T20:04:15.182Z,58.30
2018-12-16T20:09:21.305Z,59.67
2018-12-16T20:14:25.657Z,63.10
2018-12-16T20:19:29.959Z,55.93
2018-12-16T20:24:34.393Z,56.77
2018-12-16T20:29:39.150Z,58.20
2018-12-16T20:34:43.305Z,51.73
2018-12-16T20:39:47.966Z,58.50
2018-12-16T20:44:52.583Z,61.03
2018-12-16T20:50:02.223Z,62.30
2018-12-16T20:55:07.136Z,56.17
2018-12-16T21:00:12.865Z,54.87
2018-12-16T21:05:17.259Z,55.93
2018-12-16T21:10:21.616Z,59.37
2018-12-16T21:15:31.292Z,63.10
2018-12-16T21:20:35.504Z,63.40
2018-12-16T21:25:39.937Z,64.40
2018-12-16T21:30:44.335Z,58.13
2018-12-16T21:35:50.644Z,56.87
2018-12-16T21:40:57.637Z,57.97
2018-12-16T21:46:02.274Z,57.53
2018-12-16T21:51:07.706Z,60.03
2018-12-16T21:56:12.105Z,60.47
2018-12-16T22:01:16.452Z,61.23
2018-12-16T22:06:23.552Z,59.13
2018-12-16T22:11:27.826Z,58.70
2018-12-16T22:16:33.975Z,70.47
2018-12-16T22:21:39.424Z,68.87
2018-12-16T22:26:44.027Z,64.57
2018-12-16T22:31:49.032Z,65.97
2018-12-16T22:36:53.364Z,63.63
2018-12-16T22:41:59.526Z,67.13
2018-12-16T22:47:04.896Z,57.87
2018-12-16T22:52:09.217Z,64.07
2018-12-16T22:57:14.294Z,66.23
2018-12-16T23:02:19.329Z,68.67
2018-12-16T23:07:23.954Z,64.07
2018-12-16T23:12:30.668Z,59.60
2018-12-16T23:17:35.552Z,60.20
2018-12-16T23:27:59.419Z,59.60
2018-12-16T23:38:20.470Z,55.30
2018-12-16T23:43:25.820Z,57.73
2018-12-16T23:48:30.349Z,53.07
2018-12-16T23:53:34.641Z,58.67
2018-12-16T23:58:48.215Z,50.70
